Current Weather

Agadez

Agadez, Niger (DRZA)

Report from: Sunday, June 26, 2022 5:00 PM WAT
Current time: Sunday, June 26, 2022 5:23 PM WAT

Nearby weather
Weather history
Weather forecast

Temperature38.0°C (100.4°F)
Heat index40.6°C (105.1°F)
Dew point19.0°C (66.2°F)
Winds 16 kts (8.2 m/s, 18.4 mph) West (260°)
Visibility6.2 mi. (10 km)
Clouds Scattered clouds 4,000 ft. (1,219 m)
Few clouds with cumulonimbus 5,000 ft. (1,524 m)
Altimeter29.83 in.Hg (1010 mB)
Relative humidity33 %
Density altitude3,001 ft. (915 m)
Flight conditions Visual Meteorological Conditions
Raw dataDRZA 261600Z 26016KT 9999 SCT040 FEW050CB 38/19 Q1010
An error has occurred. This application may no longer respond until reloaded. Reload 🗙